createdAt,value
2018-06-08T00:01:20.615Z,99289.00
2018-06-08T00:03:25.134Z,99285.00
2018-06-08T00:05:29.678Z,99287.00
2018-06-08T00:07:34.155Z,99284.00
2018-06-08T00:09:38.746Z,99289.00
2018-06-08T00:11:43.287Z,99284.00
2018-06-08T00:13:47.819Z,99279.00
2018-06-08T00:15:52.358Z,99275.00
2018-06-08T00:17:56.867Z,99277.00
2018-06-08T00:20:01.410Z,99272.00
2018-06-08T00:22:06.233Z,99279.00
2018-06-08T00:24:10.824Z,99273.00
2018-06-08T00:26:15.338Z,99274.00
2018-06-08T00:28:20.253Z,99273.00
2018-06-08T00:30:24.831Z,99266.00
2018-06-08T00:32:29.269Z,99279.00
2018-06-08T00:34:33.762Z,99267.00
2018-06-08T00:36:38.372Z,99282.00
2018-06-08T00:38:42.818Z,99285.00
2018-06-08T00:40:47.345Z,99279.00
2018-06-08T00:42:51.864Z,99277.00
2018-06-08T00:44:56.333Z,99282.00
2018-06-08T00:47:02.182Z,99286.00
2018-06-08T00:49:06.735Z,99282.00
2018-06-08T00:51:11.280Z,99272.00
2018-06-08T00:53:15.793Z,99275.00
2018-06-08T00:55:20.529Z,99281.00
2018-06-08T00:57:25.035Z,99271.00
2018-06-08T00:59:29.613Z,99268.00
2018-06-08T01:01:35.624Z,99267.00
2018-06-08T01:03:42.624Z,99265.00
2018-06-08T01:05:51.105Z,99263.00
2018-06-08T01:07:57.482Z,99275.00
2018-06-08T01:10:06.288Z,99262.00
2018-06-08T01:12:13.109Z,99268.00
2018-06-08T01:14:24.547Z,99273.00
2018-06-08T01:16:32.103Z,99272.00
2018-06-08T01:18:39.762Z,99271.00
2018-06-08T01:20:46.398Z,99270.00
2018-06-08T01:22:53.755Z,99270.00
2018-06-08T01:25:00.410Z,99265.00
2018-06-08T01:27:09.554Z,99276.00
2018-06-08T01:29:16.380Z,99267.00
2018-06-08T01:31:23.880Z,99274.00
2018-06-08T01:33:29.952Z,99273.00
2018-06-08T01:35:36.627Z,99275.00
2018-06-08T01:37:42.146Z,99272.00
2018-06-08T01:39:48.648Z,99272.00
2018-06-08T01:41:55.840Z,99266.00
2018-06-08T01:44:03.738Z,99262.00
2018-06-08T01:46:10.726Z,99264.00
2018-06-08T01:48:18.224Z,99271.00
2018-06-08T01:50:25.543Z,99265.00
2018-06-08T01:52:31.114Z,99263.00
2018-06-08T01:54:37.019Z,99275.00
2018-06-08T01:56:44.105Z,99265.00
2018-06-08T01:58:51.013Z,99263.00
2018-06-08T02:00:55.604Z,99265.00
2018-06-08T02:03:01.357Z,99261.00
2018-06-08T02:05:06.111Z,99259.00
2018-06-08T02:07:10.679Z,99274.00
2018-06-08T02:09:15.227Z,99259.00
2018-06-08T02:11:19.716Z,99261.00
2018-06-08T02:13:24.047Z,99254.00
2018-06-08T02:15:28.580Z,99255.00
2018-06-08T02:17:33.753Z,99253.00
2018-06-08T02:19:38.233Z,99247.00
2018-06-08T02:21:42.727Z,99248.00
2018-06-08T02:23:47.230Z,99245.00
2018-06-08T02:25:52.308Z,99247.00
2018-06-08T02:27:56.796Z,99243.00
2018-06-08T02:30:01.489Z,99255.00
2018-06-08T02:32:05.759Z,99250.00
2018-06-08T02:34:10.730Z,99247.00
2018-06-08T02:36:15.212Z,99248.00
2018-06-08T02:38:19.435Z,99254.00
2018-06-08T02:40:23.933Z,99253.00
2018-06-08T02:42:28.451Z,99260.00
2018-06-08T02:44:32.918Z,99264.00
2018-06-08T02:46:37.428Z,99259.00
2018-06-08T02:48:42.383Z,99266.00
2018-06-08T02:50:46.826Z,99259.00
2018-06-08T02:52:51.361Z,99259.00
2018-06-08T02:54:55.914Z,99253.00
2018-06-08T02:57:01.626Z,99261.00
2018-06-08T02:59:06.147Z,99255.00
2018-06-08T03:01:10.686Z,99251.00
2018-06-08T03:03:15.275Z,99251.00
2018-06-08T03:05:19.790Z,99249.00
2018-06-08T03:07:24.359Z,99246.00
2018-06-08T03:09:28.818Z,99249.00
2018-06-08T03:11:33.270Z,99248.00
2018-06-08T03:13:37.763Z,99242.00
2018-06-08T03:15:42.250Z,99253.00
2018-06-08T03:17:46.811Z,99232.00
2018-06-08T03:19:51.375Z,99237.00
2018-06-08T03:21:55.872Z,99237.00
2018-06-08T03:24:00.391Z,99244.00
2018-06-08T03:26:04.964Z,99240.00
2018-06-08T03:28:09.504Z,99242.00
2018-06-08T03:30:14.015Z,99245.00
2018-06-08T03:32:19.246Z,99247.00
2018-06-08T03:34:23.795Z,99241.00
2018-06-08T03:36:28.327Z,99245.00
2018-06-08T03:38:33.521Z,99237.00
2018-06-08T03:40:37.966Z,99247.00
2018-06-08T03:42:42.110Z,99253.00
2018-06-08T03:44:46.616Z,99248.00
2018-06-08T03:46:51.361Z,99246.00
2018-06-08T03:48:56.516Z,99241.00
2018-06-08T03:51:02.086Z,99244.00
2018-06-08T03:53:07.674Z,99238.00
2018-06-08T03:55:12.211Z,99240.00
2018-06-08T03:57:16.673Z,99244.00
2018-06-08T03:59:23.239Z,99238.00
2018-06-08T04:01:31.548Z,99233.00
2018-06-08T04:03:39.930Z,99240.00
2018-06-08T04:05:48.140Z,99247.00
2018-06-08T04:07:56.698Z,99245.00
2018-06-08T04:10:06.011Z,99245.00
2018-06-08T04:12:12.347Z,99234.00
2018-06-08T04:14:21.908Z,99240.00
2018-06-08T04:16:30.911Z,99246.00
2018-06-08T04:18:41.048Z,99244.00
2018-06-08T04:20:47.371Z,99243.00
2018-06-08T04:22:55.716Z,99243.00
2018-06-08T04:25:02.998Z,99243.00
2018-06-08T04:27:10.344Z,99243.00
2018-06-08T04:29:21.582Z,99242.00
2018-06-08T04:31:29.421Z,99237.00
2018-06-08T04:33:36.387Z,99241.00
2018-06-08T04:35:42.983Z,99238.00
2018-06-08T04:37:48.625Z,99246.00
2018-06-08T04:39:55.207Z,99243.00
2018-06-08T04:42:03.001Z,99240.00
2018-06-08T04:44:10.472Z,99235.00
2018-06-08T04:46:15.719Z,99244.00
2018-06-08T04:48:21.977Z,99239.00
2018-06-08T04:50:26.779Z,99245.00
2018-06-08T04:52:31.322Z,99244.00
2018-06-08T04:54:35.807Z,99253.00
2018-06-08T04:56:40.328Z,99247.00
2018-06-08T04:58:44.854Z,99249.00
2018-06-08T05:00:49.391Z,99251.00
2018-06-08T05:02:53.896Z,99248.00
2018-06-08T05:04:58.122Z,99251.00
2018-06-08T05:07:02.959Z,99250.00
2018-06-08T05:09:08.106Z,99243.00
2018-06-08T05:11:12.545Z,99244.00
2018-06-08T05:13:17.048Z,99253.00
2018-06-08T05:15:22.215Z,99249.00
2018-06-08T05:17:26.770Z,99248.00
2018-06-08T05:19:32.484Z,99243.00
2018-06-08T05:21:36.973Z,99242.00
2018-06-08T05:23:41.452Z,99242.00
2018-06-08T05:25:46.663Z,99255.00
2018-06-08T05:27:51.695Z,99253.00
2018-06-08T05:29:56.238Z,99254.00
2018-06-08T05:32:00.694Z,99254.00
2018-06-08T05:34:06.507Z,99250.00
2018-06-08T05:36:11.049Z,99248.00
2018-06-08T05:38:15.481Z,99249.00
2018-06-08T05:40:20.017Z,99245.00
2018-06-08T05:42:24.520Z,99254.00
2018-06-08T05:44:28.997Z,99255.00
2018-06-08T05:46:33.492Z,99251.00
2018-06-08T05:48:38.871Z,99256.00
2018-06-08T05:50:43.327Z,99247.00
2018-06-08T05:52:47.802Z,99254.00
2018-06-08T05:54:52.287Z,99240.00
2018-06-08T05:56:56.754Z,99245.00
2018-06-08T05:59:01.296Z,99246.00
2018-06-08T06:01:06.142Z,99247.00
2018-06-08T06:03:10.726Z,99244.00
2018-06-08T06:05:15.227Z,99253.00
2018-06-08T06:07:19.759Z,99252.00
2018-06-08T06:09:24.267Z,99262.00
2018-06-08T06:11:28.761Z,99259.00
2018-06-08T06:13:33.270Z,99260.00
2018-06-08T06:15:37.771Z,99263.00
2018-06-08T06:17:42.441Z,99257.00
2018-06-08T06:19:46.944Z,99262.00
2018-06-08T06:21:51.498Z,99259.00
2018-06-08T06:23:56.072Z,99263.00
2018-06-08T06:26:00.609Z,99259.00
2018-06-08T06:28:05.553Z,99270.00
2018-06-08T06:30:10.117Z,99271.00
2018-06-08T06:32:14.591Z,99273.00
2018-06-08T06:34:19.110Z,99281.00
2018-06-08T06:36:24.083Z,99275.00
2018-06-08T06:38:28.512Z,99281.00
2018-06-08T06:40:32.996Z,99281.00
2018-06-08T06:42:37.745Z,99272.00
2018-06-08T06:44:42.246Z,99266.00
2018-06-08T06:46:46.925Z,99275.00
2018-06-08T06:48:51.462Z,99281.00
2018-06-08T06:50:55.987Z,99272.00
2018-06-08T06:53:00.518Z,99275.00
2018-06-08T06:55:05.114Z,99274.00
2018-06-08T06:57:09.747Z,99279.00
2018-06-08T06:59:16.529Z,99278.00
2018-06-08T07:01:21.747Z,99279.00
2018-06-08T07:03:27.010Z,99283.00
2018-06-08T07:05:32.233Z,99277.00
2018-06-08T07:07:36.702Z,99281.00
2018-06-08T07:09:41.216Z,99278.00
2018-06-08T07:11:45.741Z,99274.00
2018-06-08T07:13:50.835Z,99274.00
2018-06-08T07:15:55.341Z,99281.00
2018-06-08T07:17:59.779Z,99278.00
2018-06-08T07:20:04.367Z,99268.00
2018-06-08T07:22:09.984Z,99270.00
2018-06-08T07:24:18.436Z,99269.00
2018-06-08T07:26:22.931Z,99268.00
2018-06-08T07:28:27.401Z,99265.00
2018-06-08T07:30:32.474Z,99264.00
2018-06-08T07:32:36.912Z,99273.00
2018-06-08T07:34:41.118Z,99271.00
2018-06-08T07:36:45.322Z,99270.00
2018-06-08T07:38:50.126Z,99268.00
2018-06-08T07:40:54.645Z,99270.00
2018-06-08T07:42:59.097Z,99273.00
2018-06-08T07:45:03.676Z,99275.00
2018-06-08T07:47:08.229Z,99273.00
2018-06-08T07:49:12.835Z,99281.00
2018-06-08T07:51:17.383Z,99279.00
2018-06-08T07:53:26.337Z,99288.00
2018-06-08T07:55:31.023Z,99287.00
2018-06-08T07:57:35.485Z,99293.00
2018-06-08T07:59:41.894Z,99293.00
2018-06-08T08:01:48.192Z,99293.00
2018-06-08T08:03:53.076Z,99288.00
2018-06-08T08:06:01.296Z,99280.00
2018-06-08T08:08:09.335Z,99287.00
2018-06-08T08:10:16.281Z,99295.00
2018-06-08T08:12:26.371Z,99298.00
2018-06-08T08:14:30.948Z,99297.00
2018-06-08T08:16:35.433Z,99300.00
2018-06-08T08:18:39.943Z,99297.00
2018-06-08T08:20:44.434Z,99293.00
2018-06-08T08:22:48.901Z,99308.00
2018-06-08T08:24:53.353Z,99297.00
2018-06-08T08:26:57.806Z,99307.00
2018-06-08T08:29:02.291Z,99298.00
2018-06-08T08:31:06.864Z,99306.00
2018-06-08T08:33:11.467Z,99309.00
2018-06-08T08:35:16.045Z,99304.00
2018-06-08T08:37:20.546Z,99304.00
2018-06-08T08:39:25.016Z,99308.00
2018-06-08T08:41:29.535Z,99315.00
2018-06-08T08:43:35.450Z,99306.00
2018-06-08T08:45:40.030Z,99311.00
2018-06-08T08:47:44.467Z,99310.00
2018-06-08T08:49:48.892Z,99323.00
2018-06-08T08:51:53.389Z,99316.00
2018-06-08T08:53:58.421Z,99321.00
2018-06-08T08:56:02.992Z,99319.00
2018-06-08T08:58:07.502Z,99314.00
2018-06-08T09:00:12.044Z,99325.00
2018-06-08T09:02:16.567Z,99325.00
2018-06-08T09:04:21.275Z,99326.00
2018-06-08T09:06:29.651Z,99332.00
2018-06-08T09:08:37.188Z,99339.00
2018-06-08T09:10:41.923Z,99343.00
2018-06-08T09:12:46.415Z,99337.00
2018-06-08T09:14:51.675Z,99339.00
2018-06-08T09:16:56.175Z,99342.00
2018-06-08T09:19:00.594Z,99342.00
2018-06-08T09:21:05.114Z,99346.00
2018-06-08T09:23:09.543Z,99341.00
2018-06-08T09:25:14.101Z,99342.00
2018-06-08T09:27:18.572Z,99348.00
2018-06-08T09:29:23.265Z,99340.00
2018-06-08T09:31:27.781Z,99341.00
2018-06-08T09:33:32.313Z,99329.00
2018-06-08T09:35:36.840Z,99344.00
2018-06-08T09:37:41.323Z,99347.00
2018-06-08T09:39:45.788Z,99344.00
2018-06-08T09:41:50.403Z,99347.00
2018-06-08T09:43:54.942Z,99350.00
2018-06-08T09:45:59.472Z,99349.00
2018-06-08T09:48:04.108Z,99354.00
2018-06-08T09:50:08.844Z,99350.00
2018-06-08T09:52:13.268Z,99350.00
2018-06-08T09:54:17.673Z,99347.00
2018-06-08T09:56:22.208Z,99343.00
2018-06-08T09:58:26.711Z,99349.00
2018-06-08T10:00:37.749Z,99336.00
2018-06-08T10:02:42.171Z,99340.00
2018-06-08T10:04:46.685Z,99344.00
2018-06-08T10:06:51.248Z,99339.00
2018-06-08T10:08:55.783Z,99332.00
2018-06-08T10:11:00.267Z,99337.00
2018-06-08T10:13:04.808Z,99335.00
2018-06-08T10:15:09.372Z,99342.00
2018-06-08T10:17:13.848Z,99332.00
2018-06-08T10:19:18.298Z,99334.00
2018-06-08T10:21:22.775Z,99342.00
2018-06-08T10:23:27.239Z,99337.00
2018-06-08T10:25:32.867Z,99342.00
2018-06-08T10:27:37.392Z,99352.00
2018-06-08T10:29:41.819Z,99344.00
2018-06-08T10:31:46.254Z,99346.00
2018-06-08T10:33:50.710Z,99343.00
2018-06-08T10:35:55.282Z,99347.00
2018-06-08T10:38:00.041Z,99352.00
2018-06-08T10:40:04.559Z,99351.00
2018-06-08T10:42:08.995Z,99347.00
2018-06-08T10:44:13.567Z,99347.00
2018-06-08T10:46:18.055Z,99349.00
2018-06-08T10:48:22.688Z,99346.00
2018-06-08T10:50:27.156Z,99353.00
2018-06-08T10:52:31.669Z,99350.00
2018-06-08T10:54:36.138Z,99351.00
2018-06-08T10:56:40.672Z,99351.00
2018-06-08T10:58:45.188Z,99348.00
2018-06-08T11:00:49.717Z,99356.00
2018-06-08T11:02:54.963Z,99347.00
2018-06-08T11:04:59.920Z,99343.00
2018-06-08T11:07:04.426Z,99357.00
2018-06-08T11:09:10.418Z,99355.00
2018-06-08T11:11:14.941Z,99352.00
2018-06-08T11:13:19.492Z,99347.00
2018-06-08T11:15:24.631Z,99347.00
2018-06-08T11:17:29.110Z,99342.00
2018-06-08T11:19:33.578Z,99343.00
2018-06-08T11:21:38.095Z,99341.00
2018-06-08T11:23:42.580Z,99340.00
2018-06-08T11:25:47.080Z,99337.00
2018-06-08T11:27:51.305Z,99333.00
2018-06-08T11:29:55.782Z,99332.00
2018-06-08T11:32:00.242Z,99330.00
2018-06-08T11:34:04.757Z,99330.00
2018-06-08T11:36:09.251Z,99328.00
2018-06-08T11:38:13.851Z,99326.00
2018-06-08T11:40:18.378Z,99319.00
2018-06-08T11:42:22.859Z,99323.00
2018-06-08T11:44:27.296Z,99321.00
2018-06-08T11:46:31.859Z,99327.00
2018-06-08T11:48:36.323Z,99326.00
2018-06-08T11:50:40.830Z,99310.00
2018-06-08T11:52:45.311Z,99319.00
2018-06-08T11:54:49.755Z,99308.00
2018-06-08T11:56:54.224Z,99310.00
2018-06-08T11:58:58.674Z,99311.00
2018-06-08T12:01:03.151Z,99308.00
2018-06-08T12:03:07.661Z,99306.00
2018-06-08T12:05:12.111Z,99310.00
2018-06-08T12:07:17.502Z,99306.00
2018-06-08T12:09:21.927Z,99299.00
2018-06-08T12:11:26.416Z,99287.00
2018-06-08T12:13:31.004Z,99286.00
2018-06-08T12:15:35.446Z,99281.00
2018-06-08T12:17:39.928Z,99288.00
2018-06-08T12:19:44.403Z,99274.00
2018-06-08T12:21:48.883Z,99265.00
2018-06-08T12:23:54.547Z,99256.00
2018-06-08T12:25:59.067Z,99255.00
2018-06-08T12:28:03.596Z,99250.00
2018-06-08T12:30:08.033Z,99246.00
2018-06-08T12:32:12.535Z,99247.00
2018-06-08T12:34:17.059Z,99249.00
2018-06-08T12:36:21.536Z,99252.00
2018-06-08T12:38:26.074Z,99256.00
2018-06-08T12:40:30.615Z,99249.00
2018-06-08T12:42:35.169Z,99255.00
2018-06-08T12:44:39.661Z,99254.00
2018-06-08T12:46:44.158Z,99260.00
2018-06-08T12:48:48.716Z,99266.00
2018-06-08T12:50:53.279Z,99266.00
2018-06-08T12:52:57.762Z,99266.00
2018-06-08T12:55:02.200Z,99263.00
2018-06-08T12:57:06.734Z,99268.00
2018-06-08T12:59:11.332Z,99262.00
2018-06-08T13:01:15.954Z,99267.00
2018-06-08T13:03:20.475Z,99271.00
2018-06-08T13:05:24.939Z,99272.00
2018-06-08T13:07:29.398Z,99256.00
2018-06-08T13:09:33.877Z,99258.00
2018-06-08T13:11:38.331Z,99249.00
2018-06-08T13:13:42.883Z,99241.00
2018-06-08T13:15:47.395Z,99243.00
2018-06-08T13:17:51.881Z,99240.00
2018-06-08T13:19:56.443Z,99230.00
2018-06-08T13:22:00.932Z,99240.00
2018-06-08T13:24:05.529Z,99237.00
2018-06-08T13:26:10.018Z,99240.00
2018-06-08T13:28:15.640Z,99225.00
2018-06-08T13:30:20.171Z,99222.00
2018-06-08T13:32:24.632Z,99228.00
2018-06-08T13:34:29.244Z,99226.00
2018-06-08T13:36:33.699Z,99224.00
2018-06-08T13:38:38.235Z,99218.00
2018-06-08T13:40:42.797Z,99228.00
2018-06-08T13:42:47.319Z,99234.00
2018-06-08T13:44:51.799Z,99237.00
2018-06-08T13:46:56.254Z,99233.00
2018-06-08T13:49:00.738Z,99227.00
2018-06-08T13:51:05.247Z,99222.00
2018-06-08T13:53:09.744Z,99222.00
2018-06-08T13:55:14.203Z,99228.00
2018-06-08T13:57:18.700Z,99226.00
2018-06-08T13:59:23.209Z,99224.00
2018-06-08T14:01:27.691Z,99222.00
2018-06-08T14:03:32.170Z,99224.00
2018-06-08T14:05:36.611Z,99218.00
2018-06-08T14:07:41.046Z,99216.00
2018-06-08T14:09:45.600Z,99205.00
2018-06-08T14:11:50.119Z,99201.00
2018-06-08T14:13:54.583Z,99206.00
2018-06-08T14:15:59.042Z,99210.00
2018-06-08T14:18:03.472Z,99202.00
2018-06-08T14:20:07.964Z,99205.00
2018-06-08T14:22:12.391Z,99202.00
2018-06-08T14:24:16.899Z,99207.00
2018-06-08T14:26:21.424Z,99207.00
2018-06-08T14:28:25.901Z,99207.00
2018-06-08T14:30:30.388Z,99204.00
2018-06-08T14:32:34.813Z,99198.00
2018-06-08T14:34:39.688Z,99200.00
2018-06-08T14:36:44.210Z,99204.00
2018-06-08T14:38:48.661Z,99200.00
2018-06-08T14:40:53.127Z,99202.00
2018-06-08T14:42:57.646Z,99207.00
2018-06-08T14:45:02.280Z,99210.00
2018-06-08T14:47:06.784Z,99205.00
2018-06-08T14:49:11.414Z,99208.00
2018-06-08T14:51:16.847Z,99204.00
2018-06-08T14:53:21.327Z,99198.00
2018-06-08T14:55:25.834Z,99194.00
2018-06-08T14:57:30.283Z,99194.00
2018-06-08T14:59:34.850Z,99189.00
2018-06-08T15:01:39.299Z,99190.00
2018-06-08T15:03:43.810Z,99185.00
2018-06-08T15:05:48.290Z,99179.00
2018-06-08T15:07:52.807Z,99188.00
2018-06-08T15:09:57.339Z,99187.00
2018-06-08T15:12:01.861Z,99192.00
2018-06-08T15:14:06.385Z,99198.00
2018-06-08T15:16:10.979Z,99197.00
2018-06-08T15:18:15.487Z,99199.00
2018-06-08T15:20:20.001Z,99196.00
2018-06-08T15:22:24.481Z,99192.00
2018-06-08T15:24:29.181Z,99186.00
2018-06-08T15:26:33.638Z,99191.00
2018-06-08T15:28:38.079Z,99182.00
2018-06-08T15:30:42.571Z,99179.00
2018-06-08T15:32:47.059Z,99174.00
2018-06-08T15:34:51.590Z,99169.00
2018-06-08T15:36:57.268Z,99170.00
2018-06-08T15:39:01.775Z,99176.00
2018-06-08T15:41:06.238Z,99174.00
2018-06-08T15:43:10.835Z,99176.00
2018-06-08T15:45:15.396Z,99184.00
2018-06-08T15:47:19.904Z,99182.00
2018-06-08T15:49:24.331Z,99185.00
2018-06-08T15:51:28.752Z,99179.00
2018-06-08T15:53:33.310Z,99174.00
2018-06-08T15:55:37.864Z,99177.00
2018-06-08T15:57:42.340Z,99171.00
2018-06-08T15:59:46.907Z,99157.00
2018-06-08T16:01:51.396Z,99160.00
2018-06-08T16:03:55.856Z,99150.00
2018-06-08T16:06:00.318Z,99150.00
2018-06-08T16:08:04.479Z,99156.00
2018-06-08T16:10:08.964Z,99151.00
2018-06-08T16:12:13.466Z,99165.00
2018-06-08T16:14:18.016Z,99156.00
2018-06-08T16:16:22.498Z,99152.00
2018-06-08T16:18:27.045Z,99162.00
2018-06-08T16:20:31.251Z,99156.00
2018-06-08T16:22:35.808Z,99151.00
2018-06-08T16:24:40.313Z,99156.00
2018-06-08T16:26:44.748Z,99162.00
2018-06-08T16:28:49.179Z,99164.00
2018-06-08T16:30:53.715Z,99160.00
2018-06-08T16:32:58.391Z,99159.00
2018-06-08T16:35:02.875Z,99161.00
2018-06-08T16:37:07.347Z,99156.00
2018-06-08T16:39:11.810Z,99155.00
2018-06-08T16:41:16.277Z,99147.00
2018-06-08T16:43:20.747Z,99154.00
2018-06-08T16:45:25.214Z,99150.00
2018-06-08T16:47:29.818Z,99150.00
2018-06-08T16:49:34.205Z,99155.00
2018-06-08T16:51:38.720Z,99161.00
2018-06-08T16:53:43.260Z,99161.00
2018-06-08T16:55:47.815Z,99149.00
2018-06-08T16:57:52.435Z,99155.00
2018-06-08T16:59:56.956Z,99160.00
2018-06-08T17:02:01.445Z,99167.00
2018-06-08T17:04:05.916Z,99160.00
2018-06-08T17:06:10.438Z,99166.00
2018-06-08T17:08:14.932Z,99164.00
2018-06-08T17:10:19.371Z,99170.00
2018-06-08T17:12:23.805Z,99159.00
2018-06-08T17:14:28.406Z,99165.00
2018-06-08T17:16:32.887Z,99165.00
2018-06-08T17:18:37.340Z,99165.00
2018-06-08T17:20:41.858Z,99165.00
2018-06-08T17:22:46.315Z,99169.00
2018-06-08T17:24:50.831Z,99164.00
2018-06-08T17:26:55.381Z,99172.00
2018-06-08T17:28:59.895Z,99175.00
2018-06-08T17:31:04.392Z,99183.00
2018-06-08T17:33:08.922Z,99180.00
2018-06-08T17:35:13.442Z,99183.00
2018-06-08T17:37:17.925Z,99181.00
2018-06-08T17:39:23.190Z,99180.00
2018-06-08T17:41:27.772Z,99179.00
2018-06-08T17:43:32.859Z,99178.00
2018-06-08T17:45:37.097Z,99178.00
2018-06-08T17:47:41.601Z,99187.00
2018-06-08T17:49:46.320Z,99186.00
2018-06-08T17:51:50.968Z,99182.00
2018-06-08T17:53:55.549Z,99185.00
2018-06-08T17:56:01.169Z,99188.00
2018-06-08T17:58:06.061Z,99186.00
2018-06-08T18:00:11.888Z,99180.00
2018-06-08T18:02:16.425Z,99175.00
2018-06-08T18:04:21.015Z,99181.00
2018-06-08T18:06:25.543Z,99176.00
2018-06-08T18:08:30.730Z,99174.00
2018-06-08T18:10:35.486Z,99175.00
2018-06-08T18:12:39.979Z,99169.00
2018-06-08T18:14:44.160Z,99182.00
2018-06-08T18:16:48.661Z,99174.00
2018-06-08T18:18:53.159Z,99180.00
2018-06-08T18:20:57.939Z,99180.00
2018-06-08T18:23:03.362Z,99182.00
2018-06-08T18:25:07.894Z,99172.00
2018-06-08T18:27:13.380Z,99178.00
2018-06-08T18:29:18.539Z,99167.00
2018-06-08T18:31:23.489Z,99176.00
2018-06-08T18:33:27.855Z,99175.00
2018-06-08T18:35:32.478Z,99187.00
2018-06-08T18:37:39.993Z,99182.00
2018-06-08T18:39:45.072Z,99179.00
2018-06-08T18:41:51.847Z,99181.00
2018-06-08T18:43:58.455Z,99177.00
2018-06-08T18:46:05.104Z,99176.00
2018-06-08T18:48:11.650Z,99187.00
2018-06-08T18:50:17.924Z,99175.00
2018-06-08T18:52:23.609Z,99176.00
2018-06-08T18:54:28.065Z,99159.00
2018-06-08T18:56:32.573Z,99152.00
2018-06-08T18:58:39.633Z,99163.00
2018-06-08T19:00:44.921Z,99164.00
2018-06-08T19:02:51.304Z,99167.00
2018-06-08T19:04:56.880Z,99161.00
2018-06-08T19:07:03.874Z,99165.00
2018-06-08T19:09:09.431Z,99160.00
2018-06-08T19:11:13.941Z,99159.00
2018-06-08T19:13:18.447Z,99163.00
2018-06-08T19:15:24.216Z,99150.00
2018-06-08T19:17:29.223Z,99148.00
2018-06-08T19:19:33.848Z,99147.00
2018-06-08T19:21:38.296Z,99145.00
2018-06-08T19:23:44.218Z,99154.00
2018-06-08T19:25:48.724Z,99157.00
2018-06-08T19:27:54.356Z,99160.00
2018-06-08T19:29:59.038Z,99157.00
2018-06-08T19:32:03.807Z,99156.00
2018-06-08T19:34:08.399Z,99155.00
2018-06-08T19:36:13.411Z,99159.00
2018-06-08T19:38:18.013Z,99164.00
2018-06-08T19:40:23.117Z,99170.00
2018-06-08T19:42:28.101Z,99171.00
2018-06-08T19:44:33.655Z,99171.00
2018-06-08T19:46:38.398Z,99166.00
2018-06-08T19:48:44.411Z,99170.00
2018-06-08T19:50:48.964Z,99166.00
2018-06-08T19:52:54.420Z,99182.00
2018-06-08T19:54:59.514Z,99192.00
2018-06-08T19:57:04.534Z,99192.00
2018-06-08T19:59:09.148Z,99194.00
2018-06-08T20:01:14.938Z,99199.00
2018-06-08T20:03:19.575Z,99206.00
2018-06-08T20:05:24.389Z,99206.00
2018-06-08T20:07:29.530Z,99214.00
2018-06-08T20:09:34.216Z,99212.00
2018-06-08T20:11:39.681Z,99214.00
2018-06-08T20:13:44.222Z,99217.00
2018-06-08T20:15:49.352Z,99205.00
2018-06-08T20:17:53.505Z,99218.00
2018-06-08T20:19:58.250Z,99215.00
2018-06-08T20:22:02.699Z,99214.00
2018-06-08T20:24:07.420Z,99215.00
2018-06-08T20:26:12.491Z,99220.00
2018-06-08T20:28:17.051Z,99213.00
2018-06-08T20:30:21.585Z,99214.00
2018-06-08T20:32:26.059Z,99209.00
2018-06-08T20:34:30.607Z,99216.00
2018-06-08T20:36:36.218Z,99216.00
2018-06-08T20:38:40.737Z,99216.00
2018-06-08T20:40:45.606Z,99222.00
2018-06-08T20:42:50.080Z,99210.00
2018-06-08T20:44:55.319Z,99211.00
2018-06-08T20:46:59.816Z,99202.00
2018-06-08T20:49:04.864Z,99200.00
2018-06-08T20:51:15.406Z,99207.00
2018-06-08T20:53:20.362Z,99209.00
2018-06-08T20:55:25.190Z,99215.00
2018-06-08T20:57:30.069Z,99213.00
2018-06-08T20:59:34.599Z,99211.00
2018-06-08T21:01:41.155Z,99214.00
2018-06-08T21:03:46.718Z,99213.00
2018-06-08T21:05:51.220Z,99216.00
2018-06-08T21:07:56.450Z,99228.00
2018-06-08T21:10:00.910Z,99227.00
2018-06-08T21:12:05.330Z,99224.00
2018-06-08T21:14:09.815Z,99227.00
2018-06-08T21:16:14.385Z,99228.00
2018-06-08T21:18:18.898Z,99224.00
2018-06-08T21:20:23.511Z,99217.00
2018-06-08T21:22:28.743Z,99224.00
2018-06-08T21:24:33.255Z,99230.00
2018-06-08T21:26:37.774Z,99228.00
2018-06-08T21:28:42.267Z,99238.00
2018-06-08T21:30:46.734Z,99232.00
2018-06-08T21:32:51.222Z,99227.00
2018-06-08T21:34:55.694Z,99224.00
2018-06-08T21:37:00.198Z,99229.00
2018-06-08T21:39:07.069Z,99226.00
2018-06-08T21:41:12.785Z,99222.00
2018-06-08T21:43:20.029Z,99222.00
2018-06-08T21:45:27.934Z,99224.00
2018-06-08T21:47:32.577Z,99225.00
2018-06-08T21:49:39.129Z,99224.00
2018-06-08T21:51:44.902Z,99225.00
2018-06-08T21:53:49.323Z,99225.00
2018-06-08T21:58:10.265Z,99217.00
2018-06-08T22:00:14.822Z,99211.00
2018-06-08T22:02:19.374Z,99212.00
2018-06-08T22:04:29.977Z,99206.00
2018-06-08T22:06:34.542Z,99200.00
2018-06-08T22:08:43.986Z,99206.00
2018-06-08T22:10:48.667Z,99210.00
2018-06-08T22:12:53.084Z,99204.00
2018-06-08T22:14:58.157Z,99202.00
2018-06-08T22:17:02.750Z,99208.00
2018-06-08T22:19:07.255Z,99201.00
2018-06-08T22:21:11.782Z,99197.00
2018-06-08T22:23:16.401Z,99197.00
2018-06-08T22:25:20.925Z,99195.00
2018-06-08T22:27:25.650Z,99196.00
2018-06-08T22:29:30.172Z,99194.00
2018-06-08T22:31:34.785Z,99188.00
2018-06-08T22:33:39.242Z,99197.00
2018-06-08T22:35:43.736Z,99187.00
2018-06-08T22:37:48.298Z,99191.00
2018-06-08T22:41:49.922Z,99193.00
2018-06-08T22:43:54.507Z,99180.00
2018-06-08T22:45:58.984Z,99184.00
2018-06-08T22:48:03.508Z,99193.00
2018-06-08T22:50:08.071Z,99191.00
2018-06-08T22:52:12.579Z,99195.00
2018-06-08T22:54:17.147Z,99196.00
2018-06-08T22:56:22.260Z,99185.00
2018-06-08T22:58:26.786Z,99187.00
2018-06-08T23:00:31.286Z,99185.00
2018-06-08T23:02:38.949Z,99185.00
2018-06-08T23:04:43.554Z,99184.00
2018-06-08T23:06:48.098Z,99178.00
2018-06-08T23:08:52.697Z,99175.00
2018-06-08T23:10:57.187Z,99192.00
2018-06-08T23:13:01.699Z,99179.00
2018-06-08T23:15:07.199Z,99185.00
2018-06-08T23:17:12.363Z,99174.00
2018-06-08T23:19:17.490Z,99177.00
2018-06-08T23:21:21.983Z,99171.00
2018-06-08T23:23:26.458Z,99169.00
2018-06-08T23:25:30.914Z,99166.00
2018-06-08T23:27:35.459Z,99168.00
2018-06-08T23:29:39.956Z,99163.00
2018-06-08T23:31:45.072Z,99168.00
2018-06-08T23:33:49.547Z,99164.00
2018-06-08T23:35:54.009Z,99158.00
2018-06-08T23:37:58.488Z,99169.00
2018-06-08T23:40:03.916Z,99165.00
2018-06-08T23:42:08.479Z,99160.00
2018-06-08T23:44:13.031Z,99168.00
2018-06-08T23:46:17.526Z,99157.00
2018-06-08T23:48:22.035Z,99165.00
2018-06-08T23:50:26.512Z,99158.00
2018-06-08T23:52:31.051Z,99155.00
2018-06-08T23:54:35.517Z,99153.00
2018-06-08T23:56:40.381Z,99151.00
2018-06-08T23:58:44.987Z,99154.00
